Time;durP1;ratioP1;P1;durP2;ratioP2;P2;SDS_P1;SDS_P2;PMS_P1;PMS_P2;Temp;Humidity;BMP_temperature;BMP_pressure;BME280_temperature;BME280_humidity;BME280_pressure;Samples;Min_cycle;Max_cycle;Signal;HPM_P1;HPM_P2
2022/06/18 00:00:47;;;;;;;7.85;4.18;;;20.50;95.30;;;;;;5042550;28;20368;-63
2022/06/18 00:03:13;;;;;;;6.57;4.03;;;20.50;95.40;;;;;;5047585;28;20489;-63
2022/06/18 00:05:40;;;;;;;7.18;4.00;;;20.40;95.50;;;;;;5043348;28;20102;-63
2022/06/18 00:08:39;;;;;;;6.15;4.28;;;20.40;95.60;;;;;;5049021;28;20137;-63
2022/06/18 00:13:50;;;;;;;7.15;4.10;;;20.50;95.80;;;;;;5044413;28;20079;-63
2022/06/18 00:16:19;;;;;;;9.60;4.30;;;20.40;95.90;;;;;;5043779;28;20486;-63
2022/06/18 00:18:45;;;;;;;6.30;4.40;;;20.40;96.10;;;;;;5046548;28;20518;-63
2022/06/18 00:21:19;;;;;;;20.15;4.85;;;20.40;96.10;;;;;;5043003;28;20338;-63
2022/06/18 00:23:45;;;;;;;10.43;4.40;;;20.40;96.30;;;;;;5050237;28;20044;-63
2022/06/18 00:26:11;;;;;;;6.20;4.47;;;20.30;96.40;;;;;;5043997;28;20048;-63
2022/06/18 00:28:37;;;;;;;11.07;4.75;;;20.30;96.40;;;;;;5042882;28;20044;-63
2022/06/18 00:31:03;;;;;;;8.38;4.75;;;20.30;96.40;;;;;;5047343;28;20114;-63
2022/06/18 00:33:29;;;;;;;8.73;5.00;;;20.30;96.30;;;;;;5047914;28;20543;-63
2022/06/18 00:35:59;;;;;;;9.15;4.20;;;20.30;96.50;;;;;;5043039;28;20040;-63
2022/06/18 00:38:28;;;;;;;7.93;4.53;;;20.30;96.50;;;;;;5045781;28;20051;-63
2022/06/18 00:40:55;;;;;;;5.90;4.53;;;20.30;96.60;;;;;;5045557;28;20513;-64
2022/06/18 00:43:30;;;;;;;9.05;5.13;;;20.30;96.60;;;;;;5047778;28;20445;-63
2022/06/18 00:46:27;;;;;;;9.07;5.13;;;20.20;96.70;;;;;;5038794;28;20139;-63
2022/06/18 00:49:18;;;;;;;9.07;5.30;;;20.10;96.80;;;;;;5048915;28;20052;-63
2022/06/18 00:51:53;;;;;;;8.48;5.07;;;20.00;97.10;;;;;;5027368;28;20064;-63
2022/06/18 00:54:30;;;;;;;11.10;5.53;;;20.00;97.30;;;;;;5052440;28;20405;-63
2022/06/18 00:57:11;;;;;;;9.90;5.60;;;19.90;97.50;;;;;;5045776;28;20084;-63
2022/06/18 00:59:59;;;;;;;7.50;5.47;;;19.90;97.60;;;;;;5043259;28;20052;-63
2022/06/18 01:02:39;;;;;;;8.07;4.95;;;19.80;97.90;;;;;;5046617;28;20044;-63
2022/06/18 01:05:26;;;;;;;10.10;5.28;;;19.80;98.00;;;;;;5048143;28;20139;-63
2022/06/18 01:08:00;;;;;;;6.75;5.38;;;19.70;98.00;;;;;;5046663;28;20044;-63
2022/06/18 01:10:35;;;;;;;10.68;5.80;;;19.70;98.50;;;;;;5044796;28;20174;-63
2022/06/18 01:13:06;;;;;;;10.23;6.57;;;19.60;98.40;;;;;;5043235;28;20390;-63
2022/06/18 01:15:32;;;;;;;10.38;6.03;;;19.60;98.50;;;;;;5043849;28;20055;-63
2022/06/18 01:18:00;;;;;;;9.30;6.35;;;19.60;98.60;;;;;;5047661;28;20148;-63
2022/06/18 01:20:27;;;;;;;12.38;6.38;;;19.60;98.70;;;;;;5013561;28;20509;-63
2022/06/18 01:23:14;;;;;;;8.85;6.25;;;19.60;98.70;;;;;;5038922;28;20050;-62
2022/06/18 01:25:40;;;;;;;8.05;6.65;;;19.60;98.60;;;;;;5046099;28;20055;-63
2022/06/18 01:28:09;;;;;;;10.15;6.60;;;19.60;98.80;;;;;;5046773;28;20052;-62
2022/06/18 01:30:39;;;;;;;13.18;6.38;;;19.50;98.80;;;;;;5042246;28;20048;-62
2022/06/18 01:33:07;;;;;;;13.73;6.82;;;19.50;98.60;;;;;;5039418;28;20044;-63
2022/06/18 01:35:36;;;;;;;9.88;6.50;;;19.50;98.80;;;;;;5047410;28;20616;-63
2022/06/18 01:38:04;;;;;;;9.63;6.07;;;19.50;98.90;;;;;;5047625;28;20511;-63
2022/06/18 01:40:49;;;;;;;9.10;6.32;;;19.50;98.80;;;;;;5052535;28;20066;-63
2022/06/18 01:43:17;;;;;;;12.23;7.00;;;19.50;98.80;;;;;;5047354;28;20056;-63
2022/06/18 01:45:47;;;;;;;10.43;7.22;;;19.40;98.90;;;;;;5044169;28;20308;-65
2022/06/18 01:48:34;;;;;;;9.98;6.80;;;19.40;99.00;;;;;;5047048;28;20055;-62
2022/06/18 01:51:07;;;;;;;7.80;7.00;;;19.40;99.10;;;;;;5047233;28;20087;-63
2022/06/18 01:53:47;;;;;;;10.48;6.90;;;19.40;99.20;;;;;;5046517;28;20048;-62
2022/06/18 01:56:25;;;;;;;11.40;7.90;;;19.40;99.10;;;;;;5045293;28;21762;-63
2022/06/18 01:58:56;;;;;;;14.13;8.02;;;19.40;99.30;;;;;;5026213;28;20390;-63
2022/06/18 02:01:25;;;;;;;13.57;8.38;;;19.40;99.40;;;;;;5042360;28;20052;-63
2022/06/18 02:03:54;;;;;;;12.05;8.40;;;19.30;99.50;;;;;;5045895;28;20048;-63
2022/06/18 02:06:20;;;;;;;11.13;8.52;;;19.30;99.60;;;;;;5029756;28;20052;-64
2022/06/18 02:08:47;;;;;;;14.02;8.30;;;19.30;99.70;;;;;;5044217;28;20067;-64
2022/06/18 02:11:16;;;;;;;10.45;9.35;;;19.20;99.90;;;;;;5045735;28;20067;-64
2022/06/18 02:14:07;;;;;;;11.65;9.52;;;19.20;99.90;;;;;;5047700;28;20056;-64
2022/06/18 02:16:43;;;;;;;16.05;10.32;;;19.20;99.90;;;;;;5045861;28;20056;-64
2022/06/18 02:19:09;;;;;;;12.55;9.00;;;19.20;99.90;;;;;;5047652;28;20048;-64
2022/06/18 02:21:41;;;;;;;16.65;10.02;;;19.20;99.90;;;;;;5048231;28;20125;-64
2022/06/18 02:24:07;;;;;;;16.63;9.80;;;19.20;99.90;;;;;;5040171;28;20093;-64
2022/06/18 02:26:36;;;;;;;12.95;9.95;;;19.10;99.90;;;;;;5051542;28;21308;-63
2022/06/18 02:29:04;;;;;;;15.63;10.93;;;19.10;99.90;;;;;;5046837;28;20048;-64
2022/06/18 02:31:34;;;;;;;15.98;10.80;;;19.00;99.90;;;;;;5047439;28;20044;-63
2022/06/18 02:34:08;;;;;;;13.85;10.75;;;19.00;99.90;;;;;;5046191;28;20154;-63
2022/06/18 02:36:37;;;;;;;16.48;11.13;;;19.00;99.90;;;;;;5055165;28;20045;-63
2022/06/18 02:39:27;;;;;;;15.88;11.27;;;19.00;99.90;;;;;;5034616;28;20459;-64
2022/06/18 02:42:14;;;;;;;14.77;11.02;;;19.00;99.90;;;;;;5045868;28;20167;-64
2022/06/18 02:44:43;;;;;;;17.33;11.57;;;18.90;99.90;;;;;;5047332;28;20076;-63
2022/06/18 02:47:11;;;;;;;18.23;11.25;;;18.80;99.90;;;;;;5048938;28;20471;-64
2022/06/18 02:49:48;;;;;;;14.93;11.35;;;18.80;99.90;;;;;;5048363;28;20065;-64
2022/06/18 02:52:14;;;;;;;16.65;11.18;;;18.70;99.90;;;;;;5048007;28;20071;-64
2022/06/18 02:54:40;;;;;;;16.42;11.15;;;18.70;99.90;;;;;;5057520;28;20044;-63
2022/06/18 02:57:14;;;;;;;18.88;11.80;;;18.60;99.90;;;;;;5052785;28;20044;-64
2022/06/18 02:59:41;;;;;;;17.05;11.65;;;18.70;99.90;;;;;;5049177;28;20441;-64
2022/06/18 03:02:06;;;;;;;14.50;11.60;;;18.60;99.90;;;;;;5047288;28;20114;-64
2022/06/18 03:04:32;;;;;;;15.32;11.35;;;18.50;99.90;;;;;;5049710;28;20049;-64
2022/06/18 03:06:59;;;;;;;15.45;11.50;;;18.50;99.90;;;;;;5045373;28;20060;-63
2022/06/18 03:09:25;;;;;;;16.33;11.75;;;18.50;99.90;;;;;;5044511;28;20057;-63
2022/06/18 03:12:06;;;;;;;19.02;12.38;;;18.50;99.90;;;;;;5035238;28;20083;-63
2022/06/18 03:14:32;;;;;;;17.85;12.05;;;18.40;99.90;;;;;;5060991;28;20080;-64
2022/06/18 03:16:59;;;;;;;16.85;12.55;;;18.40;99.90;;;;;;5060190;28;20688;-64
2022/06/18 03:19:35;;;;;;;21.75;13.90;;;18.30;99.90;;;;;;5057299;28;20499;-63
2022/06/18 03:22:16;;;;;;;18.15;13.27;;;18.30;99.90;;;;;;5056133;28;20059;-63
2022/06/18 03:24:42;;;;;;;26.70;13.45;;;18.30;99.90;;;;;;5058774;28;20052;-63
2022/06/18 03:27:10;;;;;;;17.65;12.00;;;18.20;99.90;;;;;;5054030;28;20127;-63
2022/06/18 03:29:36;;;;;;;16.60;13.15;;;18.20;99.90;;;;;;5051539;28;20483;-63
2022/06/18 03:32:02;;;;;;;20.98;13.65;;;18.10;99.90;;;;;;5028278;28;20124;-63
2022/06/18 03:34:28;;;;;;;19.60;13.85;;;18.00;99.90;;;;;;5043696;28;20044;-63
2022/06/18 03:36:54;;;;;;;22.60;13.35;;;17.90;99.90;;;;;;5046271;28;20064;-63
2022/06/18 03:39:20;;;;;;;23.65;14.65;;;17.90;99.90;;;;;;5040329;28;20130;-63
2022/06/18 03:41:46;;;;;;;21.38;14.65;;;17.80;99.90;;;;;;5048837;28;20091;-63
2022/06/18 03:44:11;;;;;;;22.27;15.00;;;17.80;99.90;;;;;;5046899;28;20465;-63
2022/06/18 03:46:39;;;;;;;24.60;16.27;;;17.80;99.90;;;;;;5051213;28;20055;-63
2022/06/18 03:49:06;;;;;;;24.42;15.23;;;17.70;99.90;;;;;;5047882;28;20059;-63
2022/06/18 03:51:34;;;;;;;23.73;15.43;;;17.70;99.90;;;;;;5044633;28;20094;-63
2022/06/18 03:54:00;;;;;;;24.27;16.13;;;17.70;99.90;;;;;;5045454;28;20052;-63
2022/06/18 03:56:30;;;;;;;27.40;16.40;;;17.60;99.90;;;;;;5047335;28;20482;-63
2022/06/18 03:58:56;;;;;;;26.17;16.48;;;17.60;99.90;;;;;;5048811;28;21136;-63
2022/06/18 04:01:29;;;;;;;23.85;17.52;;;17.60;99.90;;;;;;5049808;28;20446;-62
2022/06/18 04:03:55;;;;;;;28.58;16.30;;;17.60;99.90;;;;;;5045403;28;20056;-63
2022/06/18 04:06:21;;;;;;;28.30;16.88;;;17.60;99.90;;;;;;5045414;28;20048;-63
2022/06/18 04:08:47;;;;;;;25.80;16.90;;;17.60;99.90;;;;;;5032301;28;20059;-63
2022/06/18 04:11:14;;;;;;;28.63;16.80;;;17.50;99.90;;;;;;5045081;28;20163;-63
2022/06/18 04:13:40;;;;;;;32.90;18.33;;;17.50;99.90;;;;;;5046977;28;20537;-63
2022/06/18 04:16:07;;;;;;;26.90;16.27;;;17.50;99.90;;;;;;5049867;28;20040;-63
2022/06/18 04:18:33;;;;;;;26.27;17.55;;;17.60;99.90;;;;;;5042824;28;20384;-63
2022/06/18 04:20:59;;;;;;;24.92;16.45;;;17.60;99.90;;;;;;5046441;28;20063;-64
2022/06/18 04:23:25;;;;;;;30.42;18.05;;;17.60;99.90;;;;;;5044516;28;20076;-64
2022/06/18 04:25:51;;;;;;;27.80;17.10;;;17.60;99.90;;;;;;5032435;28;20612;-64
2022/06/18 04:28:18;;;;;;;31.73;18.27;;;17.60;99.90;;;;;;5026258;28;20147;-64
2022/06/18 04:30:44;;;;;;;26.80;18.15;;;17.60;99.90;;;;;;5026284;28;20060;-64
2022/06/18 04:33:11;;;;;;;28.42;16.85;;;17.60;99.90;;;;;;5045602;28;20771;-64
2022/06/18 04:35:37;;;;;;;28.40;17.75;;;17.60;99.90;;;;;;5050937;28;20040;-64
2022/06/18 04:38:04;;;;;;;26.45;17.10;;;17.60;99.90;;;;;;5053147;28;20044;-62
2022/06/18 04:40:32;;;;;;;30.05;18.85;;;17.60;99.90;;;;;;5052394;28;20044;-64
2022/06/18 04:42:59;;;;;;;32.05;18.10;;;17.60;99.90;;;;;;5041097;28;20044;-64
2022/06/18 04:45:26;;;;;;;30.65;17.77;;;17.60;99.90;;;;;;5047529;28;20051;-64
2022/06/18 04:47:52;;;;;;;30.40;19.67;;;17.70;99.90;;;;;;5047033;28;20040;-64
2022/06/18 04:50:21;;;;;;;28.25;19.00;;;17.70;99.90;;;;;;5047178;28;20041;-64
2022/06/18 04:52:47;;;;;;;27.63;16.60;;;17.70;99.90;;;;;;5043961;28;20052;-64
2022/06/18 04:55:13;;;;;;;32.05;18.45;;;17.70;99.90;;;;;;5045745;28;20040;-64
2022/06/18 04:57:39;;;;;;;35.03;19.05;;;17.80;99.90;;;;;;5046539;28;20063;-64
2022/06/18 05:00:07;;;;;;;23.85;16.20;;;17.80;99.90;;;;;;5029147;28;20048;-64
2022/06/18 05:02:34;;;;;;;26.52;15.95;;;17.80;99.90;;;;;;5046300;28;20048;-64
2022/06/18 05:05:01;;;;;;;29.25;18.55;;;17.90;99.90;;;;;;5046667;28;20086;-63
2022/06/18 05:07:27;;;;;;;27.92;17.67;;;17.90;99.90;;;;;;5048618;28;20130;-65
2022/06/18 05:09:53;;;;;;;27.02;17.17;;;18.00;99.90;;;;;;5042177;28;20512;-65
2022/06/18 05:12:19;;;;;;;30.75;17.67;;;18.00;99.90;;;;;;4991277;28;20056;-64
2022/06/18 05:14:45;;;;;;;31.55;17.90;;;18.00;99.90;;;;;;5045921;28;20147;-63
2022/06/18 05:17:29;;;;;;;28.10;17.70;;;18.10;99.90;;;;;;5046640;28;20056;-62
2022/06/18 05:19:55;;;;;;;28.23;17.30;;;18.10;99.90;;;;;;5046647;28;20052;-63
2022/06/18 05:22:22;;;;;;;33.53;17.23;;;18.10;99.90;;;;;;5045282;28;20056;-65
2022/06/18 05:24:47;;;;;;;31.98;15.95;;;18.10;99.90;;;;;;5045080;28;20056;-63
2022/06/18 05:27:25;;;;;;;31.35;17.23;;;18.20;99.90;;;;;;5044396;28;20040;-63
2022/06/18 05:29:51;;;;;;;29.67;17.02;;;18.20;99.90;;;;;;5042378;28;20158;-63
2022/06/18 05:32:17;;;;;;;26.58;16.52;;;18.30;99.90;;;;;;5035209;28;20096;-63
2022/06/18 05:34:43;;;;;;;30.17;16.83;;;18.30;99.90;;;;;;5049148;28;20142;-63
2022/06/18 05:37:14;;;;;;;31.13;15.77;;;18.30;99.90;;;;;;5046049;28;20045;-63
2022/06/18 05:39:40;;;;;;;30.08;15.82;;;18.40;99.90;;;;;;5045559;28;20220;-63
2022/06/18 05:42:06;;;;;;;28.45;16.13;;;18.40;99.90;;;;;;5044575;28;20052;-64
2022/06/18 05:44:32;;;;;;;30.08;15.95;;;18.40;99.90;;;;;;5042052;28;20056;-63
2022/06/18 05:46:57;;;;;;;24.35;14.90;;;18.50;99.90;;;;;;5044809;28;20165;-63
2022/06/18 05:49:23;;;;;;;28.35;15.20;;;18.50;99.90;;;;;;5011734;28;20053;-63
2022/06/18 05:51:49;;;;;;;29.83;15.65;;;18.60;99.90;;;;;;5042746;28;21645;-63
2022/06/18 05:54:15;;;;;;;25.92;14.68;;;18.60;99.90;;;;;;5034546;28;20620;-63
2022/06/18 05:56:40;;;;;;;26.05;15.98;;;18.60;99.90;;;;;;5040926;28;20052;-63
2022/06/18 05:59:10;;;;;;;24.85;14.52;;;18.70;99.90;;;;;;5045892;28;20075;-64
2022/06/18 06:01:36;;;;;;;24.60;15.23;;;18.70;99.90;;;;;;5042832;28;20181;-64
2022/06/18 06:04:02;;;;;;;26.60;14.20;;;18.80;99.90;;;;;;5041366;28;20045;-65
2022/06/18 06:06:28;;;;;;;21.00;13.35;;;18.90;99.90;;;;;;5026025;28;20094;-63
2022/06/18 06:08:54;;;;;;;25.13;13.70;;;19.00;99.90;;;;;;5048249;28;20048;-62
2022/06/18 06:11:29;;;;;;;23.23;13.23;;;19.00;99.90;;;;;;5048287;28;20044;-63
2022/06/18 06:14:01;;;;;;;19.67;11.98;;;19.10;99.90;;;;;;5043579;28;20040;-63
2022/06/18 06:16:28;;;;;;;27.75;13.30;;;19.20;99.90;;;;;;5034098;28;20064;-63
2022/06/18 06:18:54;;;;;;;18.13;11.82;;;19.20;99.90;;;;;;5059655;28;20047;-63
2022/06/18 06:21:20;;;;;;;17.42;11.25;;;19.30;99.90;;;;;;5061807;28;20577;-64
2022/06/18 06:23:46;;;;;;;24.15;11.88;;;19.40;99.90;;;;;;5058227;28;20048;-63
2022/06/18 06:26:25;;;;;;;21.05;10.10;;;19.50;99.90;;;;;;5059025;28;20159;-64
2022/06/18 06:28:51;;;;;;;18.55;9.88;;;19.50;99.90;;;;;;5060314;28;20700;-64
2022/06/18 06:31:18;;;;;;;19.83;10.82;;;19.60;99.90;;;;;;5059293;28;20056;-64
2022/06/18 06:33:44;;;;;;;19.70;10.43;;;19.70;99.90;;;;;;5055252;28;20505;-63
2022/06/18 06:36:11;;;;;;;17.30;9.57;;;19.70;99.90;;;;;;5061113;28;20048;-64
2022/06/18 06:38:39;;;;;;;21.15;9.95;;;19.80;99.90;;;;;;5061795;28;20044;-64
2022/06/18 06:41:10;;;;;;;20.75;10.13;;;19.90;99.90;;;;;;5052084;28;20052;-64
2022/06/18 06:43:36;;;;;;;19.02;10.35;;;20.00;99.90;;;;;;5045143;28;20592;-63
2022/06/18 06:46:02;;;;;;;22.63;8.82;;;20.10;99.90;;;;;;5043560;28;20086;-64
2022/06/18 06:48:28;;;;;;;17.60;9.52;;;20.20;99.90;;;;;;5026296;28;20588;-63
2022/06/18 06:50:54;;;;;;;18.75;9.27;;;20.30;99.90;;;;;;5050731;28;20298;-63
2022/06/18 06:53:20;;;;;;;16.50;8.57;;;20.30;99.90;;;;;;5043888;28;20060;-63
2022/06/18 06:58:30;;;;;;;21.25;8.98;;;20.50;99.90;;;;;;5028826;28;20119;-63
2022/06/18 07:00:57;;;;;;;16.10;8.48;;;20.60;99.90;;;;;;5043046;28;20050;-63
2022/06/18 07:03:27;;;;;;;18.48;7.57;;;20.60;99.90;;;;;;5046037;28;20206;-63
2022/06/18 07:05:54;;;;;;;16.48;7.38;;;20.70;99.90;;;;;;5028799;28;20063;-63
2022/06/18 07:08:20;;;;;;;17.65;6.85;;;20.80;99.90;;;;;;5045306;28;20052;-63
2022/06/18 07:10:48;;;;;;;20.58;8.52;;;20.80;99.90;;;;;;5045259;28;20048;-64
2022/06/18 07:13:14;;;;;;;17.48;8.10;;;20.90;99.90;;;;;;5044113;28;20040;-63
2022/06/18 07:15:41;;;;;;;14.95;7.53;;;21.00;99.90;;;;;;5043971;28;20128;-63
2022/06/18 07:18:15;;;;;;;15.02;6.75;;;21.00;99.90;;;;;;5041098;28;20051;-64
2022/06/18 07:20:42;;;;;;;23.00;7.03;;;21.10;99.90;;;;;;5045186;28;20151;-64
2022/06/18 07:23:08;;;;;;;19.10;6.78;;;21.20;99.90;;;;;;5044810;28;20706;-64
2022/06/18 07:25:34;;;;;;;12.80;6.38;;;21.20;99.90;;;;;;5042019;28;20435;-64
2022/06/18 07:28:00;;;;;;;15.40;6.32;;;21.20;99.90;;;;;;5045998;28;20568;-63
2022/06/18 07:30:26;;;;;;;13.73;5.85;;;21.30;99.90;;;;;;5046236;28;20147;-64
2022/06/18 07:32:53;;;;;;;16.05;4.72;;;21.40;99.90;;;;;;5041811;28;20052;-64
2022/06/18 07:35:26;;;;;;;9.48;4.97;;;21.40;99.90;;;;;;5053655;28;20044;-63
2022/06/18 07:37:53;;;;;;;7.43;4.60;;;21.50;99.90;;;;;;5048676;28;21294;-64
2022/06/18 07:40:20;;;;;;;9.82;4.32;;;21.50;99.90;;;;;;5043136;28;20130;-64
2022/06/18 07:42:49;;;;;;;13.52;4.93;;;21.60;99.90;;;;;;5047840;28;20044;-64
2022/06/18 07:45:18;;;;;;;9.98;4.40;;;21.70;99.90;;;;;;5047621;28;20141;-64
2022/06/18 07:47:45;;;;;;;10.90;4.28;;;21.70;99.90;;;;;;5043350;28;20040;-64
2022/06/18 07:50:12;;;;;;;8.55;4.10;;;21.80;99.90;;;;;;5052148;28;21248;-64
2022/06/18 07:52:37;;;;;;;6.13;3.42;;;21.90;99.90;;;;;;5034785;28;20060;-64
2022/06/18 07:55:05;;;;;;;11.55;4.07;;;22.00;99.90;;;;;;5045630;28;20051;-64
2022/06/18 07:57:30;;;;;;;10.65;2.90;;;22.10;99.90;;;;;;5029688;28;20083;-64
2022/06/18 07:59:57;;;;;;;7.45;2.95;;;22.10;99.90;;;;;;5048909;28;20149;-64
2022/06/18 08:02:24;;;;;;;7.00;2.25;;;22.20;99.90;;;;;;5028954;28;20087;-63
2022/06/18 08:04:49;;;;;;;4.68;2.10;;;22.20;99.90;;;;;;5050157;28;20044;-64
2022/06/18 08:07:15;;;;;;;3.40;1.55;;;22.30;99.90;;;;;;5034162;28;20601;-64
2022/06/18 08:09:41;;;;;;;5.13;2.67;;;22.30;99.90;;;;;;5050348;28;20041;-64
2022/06/18 08:12:07;;;;;;;3.55;1.90;;;22.40;99.90;;;;;;5042080;28;20060;-64
2022/06/18 08:14:33;;;;;;;3.38;1.70;;;22.50;99.90;;;;;;5046846;28;20044;-64
2022/06/18 08:16:59;;;;;;;3.85;1.60;;;22.50;99.90;;;;;;5045639;28;20054;-64
2022/06/18 08:19:25;;;;;;;2.50;1.58;;;22.50;99.90;;;;;;5026363;28;20119;-64
2022/06/18 08:21:52;;;;;;;4.38;1.60;;;22.60;99.90;;;;;;5050334;28;20334;-64
2022/06/18 08:24:21;;;;;;;3.00;1.67;;;22.70;99.90;;;;;;5049204;28;20047;-64
2022/06/18 08:26:49;;;;;;;3.03;1.50;;;22.80;99.90;;;;;;5047113;28;20191;-64
2022/06/18 08:29:20;;;;;;;3.03;1.70;;;22.80;99.90;;;;;;5028174;28;20127;-64
2022/06/18 08:31:46;;;;;;;7.32;2.00;;;22.80;99.90;;;;;;5046295;28;20048;-65
2022/06/18 08:34:12;;;;;;;2.25;1.50;;;22.90;99.90;;;;;;5046353;28;20052;-63
2022/06/18 08:36:40;;;;;;;6.57;1.90;;;22.90;99.90;;;;;;5048560;28;20105;-64
2022/06/18 08:39:06;;;;;;;5.30;1.80;;;22.90;99.90;;;;;;5051194;28;20090;-64
2022/06/18 08:42:03;;;;;;;3.38;1.80;;;23.00;99.90;;;;;;5061992;28;20047;-64
2022/06/18 08:44:31;;;;;;;2.85;1.67;;;23.10;99.90;;;;;;5048829;28;20105;-64
2022/06/18 08:47:18;;;;;;;3.58;1.60;;;23.20;99.90;;;;;;5047210;28;20246;-64
2022/06/18 08:50:08;;;;;;;4.43;1.60;;;23.30;99.90;;;;;;5045456;28;20110;-64
2022/06/18 08:53:11;;;;;;;4.45;1.30;;;23.30;99.90;;;;;;5048283;28;20092;-64
2022/06/18 08:55:52;;;;;;;3.38;1.40;;;23.30;99.90;;;;;;5049941;28;20041;-64
2022/06/18 08:58:27;;;;;;;3.05;1.40;;;23.30;99.90;;;;;;5045068;28;20078;-64
2022/06/18 09:01:00;;;;;;;5.88;1.50;;;23.30;99.90;;;;;;5047538;28;20134;-64
2022/06/18 09:03:39;;;;;;;4.65;1.80;;;23.40;99.90;;;;;;5028801;28;20045;-64
2022/06/18 09:06:35;;;;;;;5.82;1.90;;;23.40;99.90;;;;;;5046904;28;20048;-64
2022/06/18 09:09:26;;;;;;;2.60;1.15;;;23.40;99.90;;;;;;5047687;28;20086;-63
2022/06/18 09:12:07;;;;;;;3.38;1.40;;;23.30;99.40;;;;;;5041798;28;20483;-64
2022/06/18 09:14:45;;;;;;;4.40;1.40;;;23.30;99.40;;;;;;5049560;28;20111;-63
2022/06/18 09:17:39;;;;;;;3.03;1.55;;;23.30;99.60;;;;;;5031179;28;20351;-64
2022/06/18 09:20:11;;;;;;;4.95;1.67;;;23.40;99.60;;;;;;5044294;28;20593;-63
2022/06/18 09:22:41;;;;;;;;;;;23.50;99.90;;;;;;5044650;28;20052;-64
2022/06/18 09:25:13;;;;;;;6.00;1.58;;;23.50;99.90;;;;;;5050090;28;19989;-64
2022/06/18 09:28:08;;;;;;;4.00;1.77;;;23.60;99.90;;;;;;5046991;28;20112;-64
2022/06/18 09:30:43;;;;;;;4.75;1.45;;;23.70;99.70;;;;;;5053090;28;20044;-64
2022/06/18 09:33:28;;;;;;;3.58;1.50;;;23.70;99.30;;;;;;5056857;28;20045;-64
2022/06/18 09:36:06;;;;;;;4.97;1.70;;;23.80;99.40;;;;;;5048176;28;20675;-64
2022/06/18 09:38:35;;;;;;;4.82;1.88;;;24.00;99.30;;;;;;5046381;28;21418;-64
2022/06/18 09:41:20;;;;;;;5.28;1.45;;;24.20;99.10;;;;;;5064991;28;20475;-64
2022/06/18 09:43:55;;;;;;;3.97;1.33;;;24.20;98.60;;;;;;5051626;28;20048;-64
2022/06/18 09:46:25;;;;;;;3.78;1.42;;;24.30;98.00;;;;;;5055409;28;20186;-64
2022/06/18 09:48:51;;;;;;;3.53;1.20;;;24.30;97.80;;;;;;5049000;28;20095;-63
2022/06/18 09:51:33;;;;;;;4.93;1.40;;;24.30;97.70;;;;;;5045130;28;20136;-63
2022/06/18 09:54:04;;;;;;;3.65;1.35;;;24.30;97.10;;;;;;5042092;28;20082;-63
2022/06/18 09:56:35;;;;;;;2.95;1.23;;;24.30;97.80;;;;;;5042768;28;20198;-64
2022/06/18 09:59:11;;;;;;;5.22;1.55;;;24.50;97.80;;;;;;5044666;28;20045;-64
2022/06/18 10:01:47;;;;;;;2.67;1.38;;;24.60;97.40;;;;;;5044804;28;20048;-63
2022/06/18 10:07:15;;;;;;;4.35;1.63;;;24.70;96.90;;;;;;5045108;28;20045;-63
2022/06/18 10:09:51;;;;;;;5.10;1.80;;;24.80;96.70;;;;;;5047600;28;20048;-63
2022/06/18 10:12:23;;;;;;;4.57;1.60;;;25.00;96.20;;;;;;5026888;28;20507;-64
2022/06/18 10:14:55;;;;;;;4.82;1.48;;;25.00;96.80;;;;;;5040324;28;20048;-63
2022/06/18 10:17:31;;;;;;;2.53;1.20;;;25.00;96.40;;;;;;5045067;28;20056;-63
2022/06/18 10:20:10;;;;;;;2.80;1.38;;;25.20;96.00;;;;;;5046722;28;20542;-63
2022/06/18 10:22:57;;;;;;;4.93;1.48;;;25.20;94.50;;;;;;5045605;28;20048;-63
2022/06/18 10:25:42;;;;;;;4.00;1.80;;;25.20;94.90;;;;;;5048302;28;20044;-63
2022/06/18 10:28:14;;;;;;;3.40;1.50;;;25.30;95.60;;;;;;5045865;28;20049;-63
2022/06/18 10:30:55;;;;;;;2.55;1.20;;;25.40;95.10;;;;;;5044469;28;20091;-63
2022/06/18 10:33:46;;;;;;;2.28;1.40;;;25.60;94.20;;;;;;5045964;28;20044;-63
2022/06/18 10:36:21;;;;;;;4.82;1.60;;;25.70;94.40;;;;;;5045916;28;20273;-63
2022/06/18 10:39:13;;;;;;;3.13;1.40;;;25.70;93.60;;;;;;5057467;28;20506;-63
2022/06/18 10:42:25;;;;;;;4.33;1.40;;;25.90;93.00;;;;;;5037122;28;20054;-63
2022/06/18 10:45:02;;;;;;;2.17;1.13;;;25.80;92.90;;;;;;5021847;28;20417;-63
2022/06/18 10:47:38;;;;;;;4.32;1.20;;;25.90;92.90;;;;;;5027609;28;20045;-63
2022/06/18 10:50:16;;;;;;;3.00;0.85;;;26.20;93.20;;;;;;5023745;28;20534;-63
2022/06/18 10:52:43;;;;;;;4.53;0.90;;;26.40;92.30;;;;;;5043494;28;20052;-63
2022/06/18 10:55:13;;;;;;;2.65;0.90;;;26.50;91.30;;;;;;5021144;28;20067;-63
2022/06/18 10:57:39;;;;;;;3.42;0.90;;;26.50;91.10;;;;;;5044610;28;20059;-63
2022/06/18 11:00:09;;;;;;;3.75;0.93;;;26.50;89.60;;;;;;5032181;28;20052;-63
2022/06/18 11:02:38;;;;;;;0.88;0.70;;;26.50;90.60;;;;;;5036651;28;20092;-63
2022/06/18 11:05:21;;;;;;;3.95;0.95;;;26.50;88.50;;;;;;5041212;28;20059;-63
2022/06/18 11:07:52;;;;;;;3.15;1.15;;;26.30;89.30;;;;;;5047293;28;20079;-63
2022/06/18 11:10:34;;;;;;;2.03;0.70;;;26.30;89.10;;;;;;5051111;28;20141;-63
2022/06/18 11:13:00;;;;;;;;;;;26.40;88.50;;;;;;5046643;28;20049;-64
2022/06/18 11:15:35;;;;;;;1.25;0.70;;;26.10;87.80;;;;;;5044138;28;20523;-63
2022/06/18 11:18:22;;;;;;;2.03;0.82;;;26.00;88.80;;;;;;5055435;28;20044;-64
2022/06/18 11:21:05;;;;;;;2.50;0.82;;;25.90;86.50;;;;;;5046654;28;20048;-63
2022/06/18 11:23:36;;;;;;;3.78;1.42;;;25.80;86.60;;;;;;5048007;28;20431;-64
2022/06/18 11:26:10;;;;;;;5.77;1.80;;;25.90;87.60;;;;;;5044031;28;20071;-63
2022/06/18 11:28:46;;;;;;;4.53;2.03;;;26.00;87.10;;;;;;5040072;28;20060;-63
2022/06/18 11:31:25;;;;;;;3.08;1.60;;;26.10;87.10;;;;;;5039081;28;20060;-62
2022/06/18 11:34:26;;;;;;;4.47;1.42;;;26.10;86.00;;;;;;5046234;28;20084;-66
2022/06/18 11:36:55;;;;;;;4.32;1.77;;;26.20;84.90;;;;;;5025311;28;20486;-65
2022/06/18 11:39:35;;;;;;;5.40;1.77;;;26.20;83.60;;;;;;5046508;28;20103;-65
2022/06/18 11:42:17;;;;;;;5.18;1.80;;;26.20;83.30;;;;;;5041715;28;21066;-65
2022/06/18 11:44:54;;;;;;;3.63;1.30;;;26.20;82.50;;;;;;5046214;28;20052;-66
2022/06/18 11:48:12;;;;;;;5.00;1.33;;;26.20;83.20;;;;;;5045387;28;20363;-66
2022/06/18 11:50:56;;;;;;;4.03;1.40;;;26.20;82.00;;;;;;5009901;28;20065;-66
2022/06/18 11:53:46;;;;;;;7.38;1.83;;;26.20;81.30;;;;;;5044279;28;20063;-66
2022/06/18 11:56:41;;;;;;;6.38;1.60;;;26.30;81.80;;;;;;5048785;28;20075;-66
2022/06/18 11:59:24;;;;;;;5.43;1.65;;;26.30;81.40;;;;;;5040960;28;20102;-66
2022/06/18 12:02:03;;;;;;;;;;;26.30;81.20;;;;;;5049577;28;20660;-66
2022/06/18 12:04:54;;;;;;;5.53;1.67;;;26.40;80.80;;;;;;5058598;28;19962;-65
2022/06/18 12:07:34;;;;;;;10.13;1.90;;;26.30;79.80;;;;;;5031800;28;20075;-66
2022/06/18 12:10:00;;;;;;;6.43;1.90;;;26.40;79.30;;;;;;5048893;28;20405;-65
2022/06/18 12:12:43;;;;;;;7.00;1.52;;;26.40;78.50;;;;;;5030064;28;20052;-66
2022/06/18 12:15:23;;;;;;;5.88;1.58;;;26.50;77.20;;;;;;5047441;28;20052;-66
2022/06/18 12:17:59;;;;;;;5.35;1.30;;;26.50;77.00;;;;;;5047936;28;20040;-66
2022/06/18 12:20:49;;;;;;;5.28;1.58;;;26.50;78.10;;;;;;5044811;28;22377;-66
2022/06/18 12:23:26;;;;;;;7.50;1.90;;;26.50;77.70;;;;;;5050073;28;20052;-66
2022/06/18 12:26:27;;;;;;;4.13;1.45;;;26.60;76.60;;;;;;5047948;28;20139;-65
2022/06/18 12:29:17;;;;;;;6.22;1.50;;;26.70;77.00;;;;;;5050954;28;20091;-66
2022/06/18 12:31:49;;;;;;;5.13;1.30;;;26.60;75.20;;;;;;5047329;28;20129;-65
2022/06/18 12:34:23;;;;;;;;;;;26.60;77.30;;;;;;5047763;28;20037;-66
2022/06/18 12:37:23;;;;;;;4.80;1.70;;;26.70;76.50;;;;;;5041154;28;19961;-65
2022/06/18 12:40:14;;;;;;;6.35;1.60;;;26.70;75.70;;;;;;5048899;28;20048;-65
2022/06/18 12:42:48;;;;;;;7.65;1.92;;;26.70;75.60;;;;;;5047981;28;20049;-65
2022/06/18 12:45:29;;;;;;;8.65;2.10;;;26.70;74.10;;;;;;5050607;28;20045;-65
2022/06/18 12:48:33;;;;;;;8.77;2.00;;;26.70;74.00;;;;;;5011853;28;20055;-65
2022/06/18 12:51:07;;;;;;;10.93;2.08;;;26.60;72.30;;;;;;5001819;28;20064;-65
2022/06/18 12:53:51;;;;;;;8.02;2.20;;;26.40;72.50;;;;;;5048446;28;20056;-65
2022/06/18 12:56:30;;;;;;;10.57;2.25;;;26.30;72.70;;;;;;5047768;28;20509;-65
2022/06/18 12:59:14;;;;;;;10.15;2.10;;;26.20;71.70;;;;;;5054747;28;20044;-66
2022/06/18 13:02:10;;;;;;;12.23;2.33;;;26.10;71.50;;;;;;5031686;28;20044;-66
2022/06/18 13:05:07;;;;;;;8.43;1.90;;;26.10;71.30;;;;;;5046849;28;20492;-65
2022/06/18 13:07:42;;;;;;;9.15;1.90;;;26.00;71.50;;;;;;5048328;28;20513;-66
2022/06/18 13:10:10;;;;;;;7.72;1.67;;;26.00;70.70;;;;;;5046437;28;20048;-66
2022/06/18 13:13:01;;;;;;;10.25;2.58;;;25.90;70.00;;;;;;5043860;28;20056;-67
2022/06/18 13:15:37;;;;;;;8.02;2.15;;;25.90;70.40;;;;;;5044577;28;20044;-66